createdAt,value
2022-10-13T00:00:18.999Z,63.5
2022-10-13T00:05:18.997Z,63.2
2022-10-13T00:10:18.976Z,63.1
2022-10-13T00:15:17.337Z,62.9
2022-10-13T00:20:16.011Z,62.7
2022-10-13T00:25:19.024Z,62.5
2022-10-13T00:30:19.012Z,62.3
2022-10-13T00:35:18.995Z,62.1
2022-10-13T00:40:18.989Z,61.9
2022-10-13T00:45:20.341Z,61.7
2022-10-13T00:50:18.970Z,61.6
2022-10-13T00:55:18.993Z,61.4
2022-10-13T01:00:18.995Z,61.3
2022-10-13T01:05:19.071Z,61.2
2022-10-13T01:10:19.014Z,61.0
2022-10-13T01:15:16.055Z,60.9
2022-10-13T01:20:20.339Z,60.8
2022-10-13T01:25:19.026Z,60.7
2022-10-13T01:30:19.047Z,60.6
2022-10-13T01:35:18.994Z,60.4
2022-10-13T01:40:19.049Z,60.3
2022-10-13T01:45:16.072Z,60.2
2022-10-13T01:50:19.010Z,60.0
2022-10-13T01:55:20.363Z,59.9
2022-10-13T02:00:19.037Z,59.8
2022-10-13T02:05:19.027Z,59.6
2022-10-13T02:10:19.019Z,59.6
2022-10-13T02:15:16.093Z,59.5
2022-10-13T02:20:16.052Z,59.4
2022-10-13T02:25:19.080Z,59.3
2022-10-13T02:30:20.362Z,59.2
2022-10-13T02:35:19.038Z,59.1
2022-10-13T02:40:16.070Z,59.0
2022-10-13T02:45:16.048Z,58.9
2022-10-13T02:50:19.086Z,58.9
2022-10-13T02:55:19.057Z,58.8
2022-10-13T03:00:19.059Z,58.8
2022-10-13T03:05:20.357Z,58.8
2022-10-13T03:10:19.070Z,58.7
2022-10-13T03:15:16.090Z,58.7
2022-10-13T03:20:16.122Z,58.6
2022-10-13T03:25:19.085Z,58.5
2022-10-13T03:30:19.103Z,58.4
2022-10-13T03:35:19.041Z,58.3
2022-10-13T03:40:20.427Z,58.2
2022-10-13T03:45:19.075Z,58.1
2022-10-13T03:50:16.095Z,58.0
2022-10-13T03:55:19.117Z,57.9
2022-10-13T04:00:18.359Z,57.8
2022-10-13T04:05:18.386Z,57.7
2022-10-13T04:10:18.399Z,57.6
2022-10-13T04:15:16.665Z,57.5
2022-10-13T04:20:15.424Z,57.5
2022-10-13T04:25:18.402Z,57.5
2022-10-13T04:30:18.363Z,57.5
2022-10-13T04:35:18.378Z,57.5
2022-10-13T04:40:18.344Z,57.5
2022-10-13T04:45:15.379Z,57.5
2022-10-13T04:50:19.690Z,57.5
2022-10-13T04:55:15.333Z,57.6
2022-10-13T05:00:18.378Z,57.7
2022-10-13T05:05:18.361Z,57.8
2022-10-13T05:10:18.401Z,57.8
2022-10-13T05:15:15.422Z,57.9
2022-10-13T05:20:15.447Z,58.0
2022-10-13T05:25:19.802Z,58.1
2022-10-13T05:30:18.404Z,58.1
2022-10-13T05:35:15.407Z,58.2
2022-10-13T05:40:15.436Z,58.2
2022-10-13T05:45:15.409Z,58.3
2022-10-13T05:50:18.414Z,58.4
2022-10-13T05:55:18.397Z,58.4
2022-10-13T06:00:19.701Z,58.4
2022-10-13T06:05:18.401Z,58.4
2022-10-13T06:10:15.472Z,58.4
2022-10-13T06:15:18.408Z,58.4
2022-10-13T06:20:18.399Z,58.3
2022-10-13T06:25:18.444Z,58.2
2022-10-13T06:30:18.425Z,58.1
2022-10-13T06:35:19.627Z,58.1
2022-10-13T06:40:15.481Z,58.0
2022-10-13T06:45:15.424Z,58.0
2022-10-13T06:50:15.485Z,57.9
2022-10-13T06:55:18.423Z,57.8
2022-10-13T07:00:18.421Z,57.8
2022-10-13T07:05:18.445Z,57.8
2022-10-13T07:10:16.782Z,57.7
2022-10-13T07:15:15.498Z,57.7
2022-10-13T07:20:18.448Z,57.7
2022-10-13T07:25:18.390Z,57.7
2022-10-13T07:30:18.447Z,57.7
2022-10-13T07:35:15.283Z,57.8
2022-10-13T07:40:15.487Z,57.8
2022-10-13T07:45:16.829Z,57.9
2022-10-13T07:50:18.446Z,58.0
2022-10-13T07:55:18.443Z,58.0
2022-10-13T08:00:18.424Z,58.0
2022-10-13T08:05:18.428Z,58.0
2022-10-13T08:10:15.455Z,58.1
2022-10-13T08:15:15.486Z,58.2
2022-10-13T08:20:19.774Z,58.2
2022-10-13T08:25:18.467Z,58.4
2022-10-13T08:30:18.617Z,58.4
2022-10-13T08:35:18.464Z,58.5
2022-10-13T08:40:15.520Z,58.5
2022-10-13T08:45:53.918Z,58.6
2022-10-13T08:50:18.469Z,58.6
2022-10-13T08:55:16.737Z,58.6
2022-10-13T09:00:18.439Z,58.6
2022-10-13T09:05:15.479Z,58.6
2022-10-13T09:10:18.471Z,58.6
2022-10-13T09:15:18.466Z,58.7
2022-10-13T09:20:18.466Z,58.7
2022-10-13T09:25:19.694Z,58.8
2022-10-13T09:30:18.490Z,58.9
2022-10-13T09:35:18.458Z,58.9
2022-10-13T09:40:15.640Z,58.9
2022-10-13T09:45:15.529Z,58.9
2022-10-13T09:50:18.498Z,58.9
2022-10-13T09:55:18.465Z,59.0
2022-10-13T10:00:19.842Z,58.9
2022-10-13T10:05:18.511Z,59.0
2022-10-13T10:10:15.557Z,58.9
2022-10-13T10:15:15.585Z,58.9
2022-10-13T10:20:18.550Z,58.9
2022-10-13T10:25:18.558Z,58.9
2022-10-13T10:30:18.490Z,58.9
2022-10-13T10:35:19.929Z,58.9
2022-10-13T10:40:15.570Z,59.0
2022-10-13T10:45:18.524Z,59.1
2022-10-13T10:50:18.508Z,59.1
2022-10-13T10:55:18.564Z,59.2
2022-10-13T11:00:18.575Z,59.3
2022-10-13T11:05:18.541Z,59.4
2022-10-13T11:10:16.876Z,59.5
2022-10-13T11:15:18.560Z,59.5
2022-10-13T11:20:18.509Z,59.6
2022-10-13T11:25:18.542Z,59.7
2022-10-13T11:30:15.464Z,59.8
2022-10-13T11:35:15.579Z,60.0
2022-10-13T11:40:19.879Z,60.2
2022-10-13T11:45:18.579Z,60.3
2022-10-13T11:50:18.581Z,60.4
2022-10-13T11:55:18.559Z,60.5
2022-10-13T12:00:18.527Z,60.6
2022-10-13T12:05:15.392Z,60.7
2022-10-13T12:10:18.566Z,60.9
2022-10-13T12:15:19.930Z,61.0
2022-10-13T12:20:18.546Z,61.2
2022-10-13T12:25:18.549Z,61.3
2022-10-13T12:30:18.530Z,61.4
2022-10-13T12:35:15.584Z,61.6
2022-10-13T12:40:15.594Z,61.7
2022-10-13T12:45:18.558Z,61.9
2022-10-13T12:50:16.836Z,62.2
2022-10-13T12:55:18.579Z,62.5
2022-10-13T13:00:18.563Z,62.7
2022-10-13T13:05:15.660Z,63.1
2022-10-13T13:10:15.601Z,63.4
2022-10-13T13:15:18.588Z,63.8
2022-10-13T13:20:19.929Z,64.3
2022-10-13T13:25:18.609Z,65.6
2022-10-13T13:30:18.642Z,65.7
2022-10-13T13:35:15.671Z,65.7
2022-10-13T13:40:18.629Z,65.6
2022-10-13T13:45:18.612Z,65.6
2022-10-13T13:50:18.577Z,65.7
2022-10-13T13:55:19.970Z,65.7
2022-10-13T14:00:18.579Z,65.7
2022-10-13T14:05:15.599Z,65.8
2022-10-13T14:10:18.601Z,65.8
2022-10-13T14:15:18.613Z,65.8
2022-10-13T14:20:18.592Z,65.9
2022-10-13T14:25:18.616Z,65.9
2022-10-13T14:30:16.927Z,66.0
2022-10-13T14:35:18.616Z,66.1
2022-10-13T14:40:18.625Z,66.1
2022-10-13T14:45:18.607Z,66.1
2022-10-13T14:50:18.620Z,66.1
2022-10-13T14:55:18.619Z,66.1
2022-10-13T15:00:15.649Z,66.1
2022-10-13T15:05:17.059Z,66.1
2022-10-13T15:10:18.627Z,66.1
2022-10-13T15:15:18.638Z,66.1
2022-10-13T15:20:18.602Z,66.1
2022-10-13T15:25:15.554Z,66.1
2022-10-13T15:30:18.675Z,66.0
2022-10-13T15:35:19.929Z,65.8
2022-10-13T15:40:18.643Z,65.6
2022-10-13T15:45:18.636Z,65.4
2022-10-13T15:50:18.642Z,65.2
2022-10-13T15:55:15.677Z,65.0
2022-10-13T16:00:15.661Z,65.0
2022-10-13T16:05:15.486Z,65.0
2022-10-13T16:10:20.023Z,65.0
2022-10-13T16:15:18.617Z,65.0
2022-10-13T16:20:18.635Z,64.9
2022-10-13T16:25:15.696Z,64.9
2022-10-13T16:30:15.731Z,65.0
2022-10-13T16:35:18.666Z,65.0
2022-10-13T16:40:18.682Z,65.1
2022-10-13T16:45:16.994Z,65.2
2022-10-13T16:50:18.678Z,65.3
2022-10-13T16:55:15.666Z,65.5
2022-10-13T17:00:15.704Z,65.7
2022-10-13T17:05:16.508Z,65.8
2022-10-13T17:10:18.673Z,66.0
2022-10-13T17:15:20.115Z,66.1
2022-10-13T17:20:18.665Z,66.2
2022-10-13T17:25:18.709Z,66.4
2022-10-13T17:30:15.719Z,66.6
2022-10-13T17:35:18.699Z,66.7
2022-10-13T17:40:18.698Z,66.9
2022-10-13T17:45:18.676Z,67.1
2022-10-13T17:50:20.033Z,67.2
2022-10-13T17:55:18.656Z,67.4
2022-10-13T18:00:15.695Z,67.6
2022-10-13T18:05:15.725Z,67.7
2022-10-13T18:10:18.732Z,67.9
2022-10-13T18:15:18.696Z,68.0
2022-10-13T18:20:18.675Z,68.1
2022-10-13T18:25:20.026Z,68.4
2022-10-13T18:30:21.382Z,68.5
2022-10-13T18:35:15.817Z,68.7
2022-10-13T18:40:18.727Z,68.9
2022-10-13T18:45:18.726Z,69.0
2022-10-13T18:50:18.703Z,69.1
2022-10-13T18:55:18.704Z,69.2
2022-10-13T19:00:20.045Z,69.3
2022-10-13T19:05:15.741Z,69.3
2022-10-13T19:10:18.726Z,69.4
2022-10-13T19:15:18.719Z,69.4
2022-10-13T19:20:18.710Z,69.4
2022-10-13T19:25:18.687Z,69.4
2022-10-13T19:30:18.698Z,69.4
2022-10-13T19:35:16.999Z,69.3
2022-10-13T19:40:15.762Z,69.3
2022-10-13T19:45:18.770Z,69.3
2022-10-13T19:50:18.782Z,69.2
2022-10-13T19:55:18.719Z,69.2
2022-10-13T20:00:15.606Z,69.1
2022-10-13T20:05:15.769Z,69.0
2022-10-13T20:10:17.229Z,68.9
2022-10-13T20:15:15.818Z,68.9
2022-10-13T20:20:22.241Z,68.8
2022-10-13T20:25:18.786Z,68.8
2022-10-13T20:30:18.745Z,68.7
2022-10-13T20:35:15.822Z,68.6
2022-10-13T20:40:15.800Z,68.5
2022-10-13T20:45:20.138Z,68.3
2022-10-13T20:50:18.758Z,68.1
2022-10-13T20:55:18.757Z,67.9
2022-10-13T21:00:18.746Z,67.7
2022-10-13T21:05:15.799Z,67.4
2022-10-13T21:10:18.765Z,67.2
2022-10-13T21:15:18.800Z,67.0
2022-10-13T21:20:19.974Z,66.8
2022-10-13T21:25:18.782Z,66.5
2022-10-13T21:30:18.761Z,66.3
2022-10-13T21:35:15.804Z,66.1
2022-10-13T21:40:15.823Z,65.9
2022-10-13T21:45:18.811Z,65.7
2022-10-13T21:50:18.783Z,65.5
2022-10-13T21:55:20.204Z,65.4
2022-10-13T22:00:18.816Z,65.3
2022-10-13T22:05:18.814Z,65.1
2022-10-13T22:10:15.839Z,65.0
2022-10-13T22:15:15.843Z,64.9
2022-10-13T22:20:18.789Z,64.8
2022-10-13T22:25:18.779Z,64.7
2022-10-13T22:30:20.151Z,64.6
2022-10-13T22:35:18.842Z,64.6
2022-10-13T22:40:15.839Z,64.5
2022-10-13T22:45:18.834Z,64.4
2022-10-13T22:50:18.835Z,64.4
2022-10-13T22:55:18.847Z,64.3
2022-10-13T23:00:18.800Z,64.3
2022-10-13T23:05:20.083Z,64.2
2022-10-13T23:10:15.851Z,64.2
2022-10-13T23:15:18.846Z,64.1
2022-10-13T23:20:18.844Z,64.1
2022-10-13T23:25:18.821Z,64.1
2022-10-13T23:30:18.830Z,64.1
2022-10-13T23:35:18.846Z,64.0
2022-10-13T23:40:17.215Z,64.0
2022-10-13T23:45:18.861Z,64.0
2022-10-13T23:50:18.886Z,64.0
2022-10-13T23:55:18.843Z,63.9
